createdAt,value
2023-03-01T00:04:39.047Z,100822.69
2023-03-01T00:10:03.527Z,100824.36
2023-03-01T00:15:27.677Z,100833.39
2023-03-01T00:20:56.423Z,100827.65
2023-03-01T00:26:26.791Z,100824.87
2023-03-01T00:31:50.734Z,100820.38
2023-03-01T00:37:14.705Z,100818.02
2023-03-01T00:42:39.554Z,100810.71
2023-03-01T00:48:04.184Z,100802.09
2023-03-01T00:53:29.078Z,100798.64
2023-03-01T00:58:53.253Z,100800.63
2023-03-01T01:04:17.476Z,100798.21
2023-03-01T01:09:42.231Z,100780.70
2023-03-01T01:15:07.198Z,100778.27
2023-03-01T01:20:31.300Z,100775.13
2023-03-01T01:25:56.917Z,100760.00
2023-03-01T01:31:24.982Z,100758.28
2023-03-01T01:36:51.148Z,100746.73
2023-03-01T01:42:19.852Z,100739.23
2023-03-01T01:47:50.190Z,100740.60
2023-03-01T01:53:20.536Z,100737.74
2023-03-01T01:58:48.903Z,100725.14
2023-03-01T02:04:13.264Z,100724.67
2023-03-01T02:09:37.721Z,100726.96
2023-03-01T02:15:01.977Z,100726.08
2023-03-01T02:20:39.483Z,100730.42
2023-03-01T02:26:10.337Z,100726.21
2023-03-01T02:31:44.677Z,100712.52
2023-03-01T02:37:16.136Z,100714.33
2023-03-01T02:42:52.440Z,100716.69
2023-03-01T02:48:16.938Z,100715.97
2023-03-01T02:54:08.643Z,100720.35
2023-03-01T02:59:40.584Z,100723.98
2023-03-01T03:05:22.105Z,100721.36
2023-03-01T03:10:48.690Z,100726.44
2023-03-01T03:16:13.263Z,100715.33
2023-03-01T03:21:37.561Z,100709.36
2023-03-01T03:27:01.664Z,100706.20
2023-03-01T03:32:25.996Z,100708.62
2023-03-01T03:38:04.172Z,100714.50
2023-03-01T03:43:28.947Z,100716.38
2023-03-01T03:48:53.572Z,100711.39
2023-03-01T03:54:18.437Z,100707.59
2023-03-01T03:59:42.816Z,100698.17
2023-03-01T04:05:08.285Z,100697.59
2023-03-01T04:10:39.202Z,100703.70
2023-03-01T04:16:04.242Z,100706.85
2023-03-01T04:21:28.693Z,100703.05
2023-03-01T04:26:52.870Z,100694.60
2023-03-01T04:32:17.871Z,100687.66
2023-03-01T04:37:42.977Z,100693.80
2023-03-01T04:43:07.820Z,100695.27
2023-03-01T04:48:33.249Z,100692.88
2023-03-01T04:53:57.225Z,100690.55
2023-03-01T04:59:23.786Z,100684.86
2023-03-01T05:04:48.491Z,100686.08
2023-03-01T05:10:13.191Z,100676.55
2023-03-01T05:15:38.513Z,100675.47
2023-03-01T05:21:11.708Z,100679.27
2023-03-01T05:26:35.812Z,100687.59
2023-03-01T05:32:02.623Z,100693.73
2023-03-01T05:37:27.940Z,100693.34
2023-03-01T05:42:58.080Z,100687.70
2023-03-01T05:48:22.478Z,100692.21
2023-03-01T05:53:46.952Z,100697.49
2023-03-01T05:59:12.136Z,100696.77
2023-03-01T06:04:36.289Z,100697.73
2023-03-01T06:10:00.668Z,100694.77
2023-03-01T06:15:25.382Z,100690.90
2023-03-01T06:20:57.613Z,100702.72
2023-03-01T06:26:22.460Z,100703.98
2023-03-01T06:31:47.334Z,100699.08
2023-03-01T06:37:12.199Z,100694.51
2023-03-01T06:42:40.604Z,100693.84
2023-03-01T06:48:08.674Z,100691.30
2023-03-01T06:53:33.428Z,100685.38
2023-03-01T06:58:57.986Z,100679.60
2023-03-01T07:04:21.824Z,100680.73
2023-03-01T07:09:47.518Z,100686.44
2023-03-01T07:15:12.228Z,100681.69
2023-03-01T07:20:37.365Z,100674.97
2023-03-01T07:26:02.288Z,100669.54
2023-03-01T07:31:29.051Z,100672.98
2023-03-01T07:36:53.712Z,100673.86
2023-03-01T07:42:18.516Z,100674.37
2023-03-01T07:47:42.497Z,100675.67
2023-03-01T07:53:06.698Z,100674.37
2023-03-01T07:58:31.845Z,100673.84
2023-03-01T08:03:56.738Z,100667.77
2023-03-01T08:09:21.253Z,100657.33
2023-03-01T08:14:45.753Z,100657.67
2023-03-01T08:20:13.769Z,100653.50
2023-03-01T08:25:37.737Z,100646.91
2023-03-01T08:31:02.766Z,100636.76
2023-03-01T08:36:29.779Z,100638.36
2023-03-01T08:41:56.637Z,100632.73
2023-03-01T08:47:20.953Z,100633.39
2023-03-01T08:52:45.108Z,100639.24
2023-03-01T08:58:09.318Z,100629.65
2023-03-01T09:03:36.285Z,100626.31
2023-03-01T09:09:03.042Z,100631.30
2023-03-01T09:14:27.212Z,100626.34
2023-03-01T09:19:51.373Z,100629.01
2023-03-01T09:25:15.860Z,100630.16
2023-03-01T09:30:39.931Z,100632.42
2023-03-01T09:36:07.371Z,100634.90
2023-03-01T09:41:38.839Z,100638.98
2023-03-01T09:47:04.521Z,100641.27
2023-03-01T09:52:44.095Z,100643.54
2023-03-01T09:58:43.302Z,100639.98
2023-03-01T10:04:48.925Z,100639.79
2023-03-01T10:10:40.388Z,100632.86
2023-03-01T10:16:18.984Z,100629.90
2023-03-01T10:21:47.128Z,100624.56
2023-03-01T10:27:35.328Z,100615.86
2023-03-01T10:33:00.218Z,100605.89
2023-03-01T10:38:25.867Z,100597.46
2023-03-01T10:43:53.012Z,100591.39
2023-03-01T10:49:24.503Z,100590.50
2023-03-01T10:55:00.964Z,100584.23
2023-03-01T11:00:26.926Z,100581.45
2023-03-01T11:06:14.416Z,100578.30
2023-03-01T11:11:39.256Z,100572.45
2023-03-01T11:17:14.196Z,100570.00
2023-03-01T11:22:46.940Z,100566.68
2023-03-01T11:28:22.908Z,100559.68
2023-03-01T11:33:55.151Z,100551.62
2023-03-01T11:40:05.137Z,100546.83
2023-03-01T11:45:38.079Z,100535.93
2023-03-01T11:51:10.616Z,100531.27
2023-03-01T11:56:55.790Z,100534.30
2023-03-01T12:02:32.213Z,100541.13
2023-03-01T12:08:18.163Z,100536.71
2023-03-01T12:13:52.260Z,100530.57
2023-03-01T12:19:21.124Z,100519.88
2023-03-01T12:24:52.176Z,100514.41
2023-03-01T12:30:44.876Z,100508.98
2023-03-01T12:36:44.919Z,100502.96
2023-03-01T12:42:30.384Z,100498.34
2023-03-01T12:48:12.603Z,100496.80
2023-03-01T12:53:42.599Z,100491.84
2023-03-01T12:59:15.655Z,100496.10
2023-03-01T13:05:08.063Z,100483.55
2023-03-01T13:10:50.576Z,100473.81
2023-03-01T13:16:31.457Z,100467.20
2023-03-01T13:21:56.242Z,100464.14
2023-03-01T13:27:26.421Z,100459.81
2023-03-01T13:32:51.231Z,100456.64
2023-03-01T13:38:47.942Z,100450.51
2023-03-01T13:44:33.744Z,100452.29
2023-03-01T13:50:05.785Z,100442.61
2023-03-01T13:55:42.144Z,100436.26
2023-03-01T14:01:08.679Z,100426.56
2023-03-01T14:06:37.022Z,100422.77
2023-03-01T14:12:02.100Z,100414.70
2023-03-01T14:17:43.178Z,100410.02
2023-03-01T14:23:21.497Z,100407.51
2023-03-01T14:28:45.922Z,100404.75
2023-03-01T14:34:26.538Z,100399.69
2023-03-01T14:39:58.023Z,100390.55
2023-03-01T14:45:28.021Z,100380.27
2023-03-01T14:50:55.822Z,100379.10
2023-03-01T14:56:21.877Z,100376.75
2023-03-01T15:01:47.465Z,100376.60
2023-03-01T15:07:15.113Z,100375.99
2023-03-01T15:12:42.528Z,100374.40
2023-03-01T15:18:17.111Z,100367.14
2023-03-01T15:23:42.042Z,100366.17
2023-03-01T15:29:06.385Z,100370.30
2023-03-01T15:34:41.372Z,100373.27
2023-03-01T15:40:20.763Z,100374.60
2023-03-01T15:45:57.304Z,100369.83
2023-03-01T15:51:34.861Z,100373.05
2023-03-01T15:56:59.583Z,100372.30
2023-03-01T16:02:25.722Z,100366.53
2023-03-01T16:07:50.157Z,100371.57
2023-03-01T16:13:15.026Z,100371.92
2023-03-01T16:18:40.391Z,100377.05
2023-03-01T16:24:05.683Z,100381.12
2023-03-01T16:29:31.296Z,100378.28
2023-03-01T16:34:55.924Z,100376.40
2023-03-01T16:40:27.816Z,100380.73
2023-03-01T16:45:53.084Z,100380.02
2023-03-01T16:51:17.916Z,100383.66
2023-03-01T16:56:43.377Z,100391.20
2023-03-01T17:02:09.452Z,100403.72
2023-03-01T17:07:35.890Z,100410.00
2023-03-01T17:13:00.141Z,100409.50
2023-03-01T17:18:25.467Z,100416.43
2023-03-01T17:23:50.780Z,100410.98
2023-03-01T17:29:19.434Z,100414.55
2023-03-01T17:34:43.538Z,100417.30
2023-03-01T17:40:09.166Z,100427.66
2023-03-01T17:45:33.649Z,100435.13
2023-03-01T17:50:58.847Z,100437.05
2023-03-01T17:56:24.846Z,100435.52
2023-03-01T18:02:13.558Z,100437.45
2023-03-01T18:08:00.568Z,100445.55
2023-03-01T18:13:25.455Z,100448.84
2023-03-01T18:18:55.197Z,100446.65
2023-03-01T18:24:19.546Z,100447.87
2023-03-01T18:29:44.841Z,100442.58
2023-03-01T18:35:10.276Z,100435.61
2023-03-01T18:40:35.038Z,100431.59
2023-03-01T18:46:00.341Z,100434.45
2023-03-01T18:51:27.146Z,100426.09
2023-03-01T18:56:51.702Z,100421.08
2023-03-01T19:02:16.927Z,100419.45
2023-03-01T19:07:41.746Z,100417.39
2023-03-01T19:13:05.647Z,100411.31
2023-03-01T19:18:30.011Z,100402.61
2023-03-01T19:23:55.627Z,100400.38
2023-03-01T19:29:20.052Z,100401.02
2023-03-01T19:34:45.042Z,100397.20
2023-03-01T19:40:10.464Z,100397.55
2023-03-01T19:45:34.858Z,100397.56
2023-03-01T19:50:59.212Z,100403.36
2023-03-01T19:56:23.278Z,100403.51
2023-03-01T20:01:47.280Z,100411.96
2023-03-01T20:07:13.074Z,100406.69
2023-03-01T20:12:38.828Z,100413.08
2023-03-01T20:18:03.560Z,100411.88
2023-03-01T20:23:28.750Z,100408.67
2023-03-01T20:28:55.457Z,100407.15
2023-03-01T20:34:20.100Z,100402.56
2023-03-01T20:39:45.258Z,100390.65
2023-03-01T20:45:10.821Z,100393.02
2023-03-01T20:50:34.930Z,100395.49
2023-03-01T20:56:07.350Z,100400.30
2023-03-01T21:01:34.563Z,100407.98
2023-03-01T21:06:58.746Z,100401.38
2023-03-01T21:12:23.532Z,100395.33
2023-03-01T21:17:48.448Z,100396.29
2023-03-01T21:23:12.988Z,100397.75
2023-03-01T21:28:38.086Z,100387.20
2023-03-01T21:34:05.516Z,100383.13
2023-03-01T21:39:30.306Z,100378.39
2023-03-01T21:44:54.981Z,100368.27
2023-03-01T21:50:20.306Z,100357.75
2023-03-01T21:55:48.482Z,100356.97
2023-03-01T22:01:15.842Z,100352.02
2023-03-01T22:06:42.714Z,100356.52
2023-03-01T22:12:07.133Z,100359.51
2023-03-01T22:17:31.858Z,100364.41
2023-03-01T22:22:56.153Z,100368.27
2023-03-01T22:28:20.592Z,100374.29
2023-03-01T22:33:44.875Z,100380.50
2023-03-01T22:39:08.698Z,100381.05
2023-03-01T22:44:33.342Z,100366.82
2023-03-01T22:49:57.865Z,100361.27
2023-03-01T22:55:22.414Z,100362.13
2023-03-01T23:00:46.780Z,100361.48
2023-03-01T23:06:11.741Z,100361.41
2023-03-01T23:11:35.554Z,100357.66
2023-03-01T23:17:03.640Z,100355.67
2023-03-01T23:22:31.459Z,100352.74
2023-03-01T23:27:56.007Z,100347.41
2023-03-01T23:33:20.200Z,100348.98
2023-03-01T23:38:44.857Z,100356.17
2023-03-01T23:44:09.104Z,100365.13
2023-03-01T23:49:33.292Z,100365.55
2023-03-01T23:54:58.254Z,100362.71
